sensor_id;sensor_type;location;lat;lon;timestamp;temperature;humidity
67555;HTU21D;54385;53.516;49.456;2023-05-19T00:01:58;11.25;57.19
67555;HTU21D;54385;53.516;49.456;2023-05-19T00:04:31;11.16;57.43
67555;HTU21D;54385;53.516;49.456;2023-05-19T00:06:58;11.14;57.60
67555;HTU21D;54385;53.516;49.456;2023-05-19T00:09:26;11.14;57.59
67555;HTU21D;54385;53.516;49.456;2023-05-19T00:11:53;11.15;57.62
67555;HTU21D;54385;53.516;49.456;2023-05-19T00:14:23;11.15;58.04
67555;HTU21D;54385;53.516;49.456;2023-05-19T00:16:50;11.13;58.22
67555;HTU21D;54385;53.516;49.456;2023-05-19T00:19:17;11.11;58.47
67555;HTU21D;54385;53.516;49.456;2023-05-19T00:21:44;11.09;58.44
67555;HTU21D;54385;53.516;49.456;2023-05-19T00:24:10;11.08;58.73
67555;HTU21D;54385;53.516;49.456;2023-05-19T00:26:38;11.08;58.58
67555;HTU21D;54385;53.516;49.456;2023-05-19T00:29:04;11.04;59.03
67555;HTU21D;54385;53.516;49.456;2023-05-19T00:31:31;11.03;58.51
67555;HTU21D;54385;53.516;49.456;2023-05-19T00:33:59;11.01;58.67
67555;HTU21D;54385;53.516;49.456;2023-05-19T00:36:25;10.99;59.07
67555;HTU21D;54385;53.516;49.456;2023-05-19T00:38:52;10.94;59.42
67555;HTU21D;54385;53.516;49.456;2023-05-19T00:41:18;10.93;60.14
67555;HTU21D;54385;53.516;49.456;2023-05-19T00:43:44;10.93;59.69
67555;HTU21D;54385;53.516;49.456;2023-05-19T00:46:11;10.98;59.51
67555;HTU21D;54385;53.516;49.456;2023-05-19T00:48:37;11.03;59.95
67555;HTU21D;54385;53.516;49.456;2023-05-19T00:51:04;11.07;60.05
67555;HTU21D;54385;53.516;49.456;2023-05-19T00:53:32;11.04;60.02
67555;HTU21D;54385;53.516;49.456;2023-05-19T00:56:00;11.08;59.73
67555;HTU21D;54385;53.516;49.456;2023-05-19T00:58:28;11.12;59.57
67555;HTU21D;54385;53.516;49.456;2023-05-19T01:00:59;11.10;59.54
67555;HTU21D;54385;53.516;49.456;2023-05-19T01:03:33;11.08;59.59
67555;HTU21D;54385;53.516;49.456;2023-05-19T01:06:02;11.05;59.57
67555;HTU21D;54385;53.516;49.456;2023-05-19T01:08:35;11.05;60.02
67555;HTU21D;54385;53.516;49.456;2023-05-19T01:11:06;11.03;60.20
67555;HTU21D;54385;53.516;49.456;2023-05-19T01:13:33;11.03;60.12
67555;HTU21D;54385;53.516;49.456;2023-05-19T01:16:28;11.10;60.26
67555;HTU21D;54385;53.516;49.456;2023-05-19T01:19:03;11.10;60.28
67555;HTU21D;54385;53.516;49.456;2023-05-19T01:21:55;11.12;60.14
67555;HTU21D;54385;53.516;49.456;2023-05-19T01:32:32;11.11;60.44
67555;HTU21D;54385;53.516;49.456;2023-05-19T01:35:00;11.04;60.33
67555;HTU21D;54385;53.516;49.456;2023-05-19T01:37:28;11.09;60.31
67555;HTU21D;54385;53.516;49.456;2023-05-19T01:39:55;11.08;60.46
67555;HTU21D;54385;53.516;49.456;2023-05-19T01:42:22;11.09;60.56
67555;HTU21D;54385;53.516;49.456;2023-05-19T01:44:48;11.11;60.65
67555;HTU21D;54385;53.516;49.456;2023-05-19T01:47:16;11.08;60.96
67555;HTU21D;54385;53.516;49.456;2023-05-19T01:49:42;11.14;60.89
67555;HTU21D;54385;53.516;49.456;2023-05-19T01:52:08;11.22;61.21
67555;HTU21D;54385;53.516;49.456;2023-05-19T01:54:35;11.23;60.88
67555;HTU21D;54385;53.516;49.456;2023-05-19T01:59:58;11.38;60.73
67555;HTU21D;54385;53.516;49.456;2023-05-19T02:08:10;11.54;60.32
67555;HTU21D;54385;53.516;49.456;2023-05-19T02:10:40;11.57;60.32
67555;HTU21D;54385;53.516;49.456;2023-05-19T02:13:11;11.63;60.47
67555;HTU21D;54385;53.516;49.456;2023-05-19T02:15:44;11.70;60.25
67555;HTU21D;54385;53.516;49.456;2023-05-19T02:18:11;11.86;59.73
67555;HTU21D;54385;53.516;49.456;2023-05-19T02:20:38;11.93;59.25
67555;HTU21D;54385;53.516;49.456;2023-05-19T02:23:05;12.00;58.71
67555;HTU21D;54385;53.516;49.456;2023-05-19T02:25:32;12.07;58.19
67555;HTU21D;54385;53.516;49.456;2023-05-19T02:27:58;12.15;57.99
67555;HTU21D;54385;53.516;49.456;2023-05-19T02:30:25;12.23;57.98
67555;HTU21D;54385;53.516;49.456;2023-05-19T02:32:52;12.30;57.67
67555;HTU21D;54385;53.516;49.456;2023-05-19T02:35:19;12.40;57.32
67555;HTU21D;54385;53.516;49.456;2023-05-19T02:37:46;12.50;56.93
67555;HTU21D;54385;53.516;49.456;2023-05-19T02:40:12;12.56;56.91
67555;HTU21D;54385;53.516;49.456;2023-05-19T02:42:41;12.61;56.59
67555;HTU21D;54385;53.516;49.456;2023-05-19T02:45:08;12.65;56.30
67555;HTU21D;54385;53.516;49.456;2023-05-19T02:47:34;12.74;55.78
67555;HTU21D;54385;53.516;49.456;2023-05-19T02:50:00;12.82;55.68
67555;HTU21D;54385;53.516;49.456;2023-05-19T02:52:27;12.88;55.32
67555;HTU21D;54385;53.516;49.456;2023-05-19T02:54:53;12.93;55.14
67555;HTU21D;54385;53.516;49.456;2023-05-19T02:57:19;13.05;54.87
67555;HTU21D;54385;53.516;49.456;2023-05-19T02:59:47;13.10;54.38
67555;HTU21D;54385;53.516;49.456;2023-05-19T03:02:13;13.20;53.78
67555;HTU21D;54385;53.516;49.456;2023-05-19T03:04:39;13.26;53.47
67555;HTU21D;54385;53.516;49.456;2023-05-19T03:07:09;13.32;53.07
67555;HTU21D;54385;53.516;49.456;2023-05-19T03:09:36;13.39;53.06
67555;HTU21D;54385;53.516;49.456;2023-05-19T03:12:03;13.45;53.03
67555;HTU21D;54385;53.516;49.456;2023-05-19T03:14:33;13.53;52.91
67555;HTU21D;54385;53.516;49.456;2023-05-19T03:17:00;13.61;52.90
67555;HTU21D;54385;53.516;49.456;2023-05-19T03:19:27;13.68;52.73
67555;HTU21D;54385;53.516;49.456;2023-05-19T03:21:53;13.73;52.49
67555;HTU21D;54385;53.516;49.456;2023-05-19T03:24:21;13.78;52.32
67555;HTU21D;54385;53.516;49.456;2023-05-19T03:26:48;13.85;52.06
67555;HTU21D;54385;53.516;49.456;2023-05-19T03:29:15;13.90;52.17
67555;HTU21D;54385;53.516;49.456;2023-05-19T03:31:41;13.94;52.25
67555;HTU21D;54385;53.516;49.456;2023-05-19T03:34:08;13.94;51.53
67555;HTU21D;54385;53.516;49.456;2023-05-19T03:36:34;14.04;51.53
67555;HTU21D;54385;53.516;49.456;2023-05-19T03:39:05;14.13;50.79
67555;HTU21D;54385;53.516;49.456;2023-05-19T03:41:32;14.23;50.54
67555;HTU21D;54385;53.516;49.456;2023-05-19T03:43:59;14.33;50.21
67555;HTU21D;54385;53.516;49.456;2023-05-19T03:46:26;14.40;49.97
67555;HTU21D;54385;53.516;49.456;2023-05-19T03:48:52;14.36;50.14
67555;HTU21D;54385;53.516;49.456;2023-05-19T03:51:19;14.37;50.05
67555;HTU21D;54385;53.516;49.456;2023-05-19T03:53:45;14.45;49.87
67555;HTU21D;54385;53.516;49.456;2023-05-19T03:56:13;14.62;49.29
67555;HTU21D;54385;53.516;49.456;2023-05-19T03:58:43;14.72;48.92
67555;HTU21D;54385;53.516;49.456;2023-05-19T04:01:16;14.78;48.47
67555;HTU21D;54385;53.516;49.456;2023-05-19T04:03:43;14.82;48.66
67555;HTU21D;54385;53.516;49.456;2023-05-19T04:06:10;14.85;48.72
67555;HTU21D;54385;53.516;49.456;2023-05-19T04:08:39;14.99;48.55
67555;HTU21D;54385;53.516;49.456;2023-05-19T04:11:06;15.10;48.31
67555;HTU21D;54385;53.516;49.456;2023-05-19T04:13:33;15.22;47.91
67555;HTU21D;54385;53.516;49.456;2023-05-19T04:15:59;15.30;48.20
67555;HTU21D;54385;53.516;49.456;2023-05-19T04:18:28;15.19;47.79
67555;HTU21D;54385;53.516;49.456;2023-05-19T04:20:55;15.25;47.53
67555;HTU21D;54385;53.516;49.456;2023-05-19T04:23:24;15.36;47.35
67555;HTU21D;54385;53.516;49.456;2023-05-19T04:25:51;15.46;47.09
67555;HTU21D;54385;53.516;49.456;2023-05-19T04:28:19;15.48;46.85
67555;HTU21D;54385;53.516;49.456;2023-05-19T04:30:47;15.57;47.15
67555;HTU21D;54385;53.516;49.456;2023-05-19T04:33:14;15.65;46.79
67555;HTU21D;54385;53.516;49.456;2023-05-19T04:35:52;15.62;46.94
67555;HTU21D;54385;53.516;49.456;2023-05-19T04:38:20;15.65;47.32
67555;HTU21D;54385;53.516;49.456;2023-05-19T04:40:47;15.77;46.91
67555;HTU21D;54385;53.516;49.456;2023-05-19T04:43:18;15.92;46.48
67555;HTU21D;54385;53.516;49.456;2023-05-19T04:45:45;16.00;46.20
67555;HTU21D;54385;53.516;49.456;2023-05-19T04:48:18;16.11;46.17
67555;HTU21D;54385;53.516;49.456;2023-05-19T04:50:52;16.19;45.99
67555;HTU21D;54385;53.516;49.456;2023-05-19T04:53:23;16.21;46.19
67555;HTU21D;54385;53.516;49.456;2023-05-19T04:56:00;16.33;46.48
67555;HTU21D;54385;53.516;49.456;2023-05-19T04:58:46;16.45;45.82
67555;HTU21D;54385;53.516;49.456;2023-05-19T05:01:16;16.41;45.61
67555;HTU21D;54385;53.516;49.456;2023-05-19T05:03:43;16.51;45.25
67555;HTU21D;54385;53.516;49.456;2023-05-19T05:06:10;16.45;45.28
67555;HTU21D;54385;53.516;49.456;2023-05-19T05:08:37;16.46;44.64
67555;HTU21D;54385;53.516;49.456;2023-05-19T05:11:05;16.55;43.97
67555;HTU21D;54385;53.516;49.456;2023-05-19T05:13:35;16.62;43.77
67555;HTU21D;54385;53.516;49.456;2023-05-19T05:16:03;16.73;43.09
67555;HTU21D;54385;53.516;49.456;2023-05-19T05:18:32;16.93;43.13
67555;HTU21D;54385;53.516;49.456;2023-05-19T05:21:00;17.06;43.48
67555;HTU21D;54385;53.516;49.456;2023-05-19T05:23:27;17.19;43.15
67555;HTU21D;54385;53.516;49.456;2023-05-19T05:25:54;17.14;41.64
67555;HTU21D;54385;53.516;49.456;2023-05-19T05:28:21;17.11;42.36
67555;HTU21D;54385;53.516;49.456;2023-05-19T05:30:48;17.25;42.36
67555;HTU21D;54385;53.516;49.456;2023-05-19T05:33:15;17.37;42.49
67555;HTU21D;54385;53.516;49.456;2023-05-19T05:35:43;17.55;42.70
67555;HTU21D;54385;53.516;49.456;2023-05-19T05:38:10;17.73;41.79
67555;HTU21D;54385;53.516;49.456;2023-05-19T05:40:36;17.80;40.26
67555;HTU21D;54385;53.516;49.456;2023-05-19T05:43:03;17.74;40.42
67555;HTU21D;54385;53.516;49.456;2023-05-19T05:45:30;17.81;40.97
67555;HTU21D;54385;53.516;49.456;2023-05-19T05:47:57;17.91;40.83
67555;HTU21D;54385;53.516;49.456;2023-05-19T05:50:24;18.07;40.13
67555;HTU21D;54385;53.516;49.456;2023-05-19T05:52:52;17.93;39.85
67555;HTU21D;54385;53.516;49.456;2023-05-19T05:55:19;17.88;40.17
67555;HTU21D;54385;53.516;49.456;2023-05-19T05:57:46;17.85;40.17
67555;HTU21D;54385;53.516;49.456;2023-05-19T06:00:14;17.74;39.40
67555;HTU21D;54385;53.516;49.456;2023-05-19T06:02:45;17.72;38.95
67555;HTU21D;54385;53.516;49.456;2023-05-19T06:05:12;17.78;38.64
67555;HTU21D;54385;53.516;49.456;2023-05-19T06:07:39;18.04;38.97
67555;HTU21D;54385;53.516;49.456;2023-05-19T06:10:07;18.15;38.27
67555;HTU21D;54385;53.516;49.456;2023-05-19T06:12:34;18.27;38.00
67555;HTU21D;54385;53.516;49.456;2023-05-19T06:15:02;18.42;37.17
67555;HTU21D;54385;53.516;49.456;2023-05-19T06:17:29;18.64;36.73
67555;HTU21D;54385;53.516;49.456;2023-05-19T06:19:56;18.74;36.02
67555;HTU21D;54385;53.516;49.456;2023-05-19T06:22:23;18.80;35.79
67555;HTU21D;54385;53.516;49.456;2023-05-19T06:24:49;18.85;35.92
67555;HTU21D;54385;53.516;49.456;2023-05-19T06:27:16;18.77;36.31
67555;HTU21D;54385;53.516;49.456;2023-05-19T06:29:43;18.83;36.28
67555;HTU21D;54385;53.516;49.456;2023-05-19T06:32:10;18.73;36.01
67555;HTU21D;54385;53.516;49.456;2023-05-19T06:34:36;18.93;35.06
67555;HTU21D;54385;53.516;49.456;2023-05-19T06:37:08;18.99;35.17
67555;HTU21D;54385;53.516;49.456;2023-05-19T06:39:37;19.15;35.50
67555;HTU21D;54385;53.516;49.456;2023-05-19T06:42:04;19.39;35.50
67555;HTU21D;54385;53.516;49.456;2023-05-19T06:44:31;19.47;35.44
67555;HTU21D;54385;53.516;49.456;2023-05-19T06:46:58;19.55;35.11
67555;HTU21D;54385;53.516;49.456;2023-05-19T06:49:24;19.57;34.79
67555;HTU21D;54385;53.516;49.456;2023-05-19T06:51:54;19.21;34.76
67555;HTU21D;54385;53.516;49.456;2023-05-19T06:54:21;19.18;35.20
67555;HTU21D;54385;53.516;49.456;2023-05-19T06:56:48;19.24;35.18
67555;HTU21D;54385;53.516;49.456;2023-05-19T06:59:15;19.41;34.95
67555;HTU21D;54385;53.516;49.456;2023-05-19T07:01:42;19.24;34.81
67555;HTU21D;54385;53.516;49.456;2023-05-19T07:04:09;19.31;35.36
67555;HTU21D;54385;53.516;49.456;2023-05-19T07:06:39;19.40;35.53
67555;HTU21D;54385;53.516;49.456;2023-05-19T07:09:08;19.33;35.69
67555;HTU21D;54385;53.516;49.456;2023-05-19T07:11:35;19.37;35.81
67555;HTU21D;54385;53.516;49.456;2023-05-19T07:14:02;19.30;34.95
67555;HTU21D;54385;53.516;49.456;2023-05-19T07:16:29;19.36;35.23
67555;HTU21D;54385;53.516;49.456;2023-05-19T07:18:56;19.67;35.31
67555;HTU21D;54385;53.516;49.456;2023-05-19T07:21:22;19.90;33.96
67555;HTU21D;54385;53.516;49.456;2023-05-19T07:23:52;19.83;33.54
67555;HTU21D;54385;53.516;49.456;2023-05-19T07:26:19;19.76;33.77
67555;HTU21D;54385;53.516;49.456;2023-05-19T07:28:46;19.80;33.85
67555;HTU21D;54385;53.516;49.456;2023-05-19T07:31:12;19.74;33.48
67555;HTU21D;54385;53.516;49.456;2023-05-19T07:33:41;20.05;33.15
67555;HTU21D;54385;53.516;49.456;2023-05-19T07:36:08;20.27;32.54
67555;HTU21D;54385;53.516;49.456;2023-05-19T07:38:38;20.42;32.43
67555;HTU21D;54385;53.516;49.456;2023-05-19T07:41:05;20.37;32.54
67555;HTU21D;54385;53.516;49.456;2023-05-19T07:43:32;20.55;32.35
67555;HTU21D;54385;53.516;49.456;2023-05-19T07:45:59;20.76;32.71
67555;HTU21D;54385;53.516;49.456;2023-05-19T07:48:26;20.79;31.28
67555;HTU21D;54385;53.516;49.456;2023-05-19T07:50:53;20.57;31.67
67555;HTU21D;54385;53.516;49.456;2023-05-19T07:53:20;20.44;32.45
67555;HTU21D;54385;53.516;49.456;2023-05-19T07:55:48;20.26;32.90
67555;HTU21D;54385;53.516;49.456;2023-05-19T07:58:15;20.21;32.90
67555;HTU21D;54385;53.516;49.456;2023-05-19T08:00:48;20.56;31.68
67555;HTU21D;54385;53.516;49.456;2023-05-19T08:03:15;20.84;31.35
67555;HTU21D;54385;53.516;49.456;2023-05-19T08:05:45;20.92;29.86
67555;HTU21D;54385;53.516;49.456;2023-05-19T08:08:21;20.75;30.58
67555;HTU21D;54385;53.516;49.456;2023-05-19T08:10:49;20.83;29.88
67555;HTU21D;54385;53.516;49.456;2023-05-19T08:13:16;20.79;30.74
67555;HTU21D;54385;53.516;49.456;2023-05-19T08:15:43;20.73;30.25
67555;HTU21D;54385;53.516;49.456;2023-05-19T08:18:09;20.86;30.90
67555;HTU21D;54385;53.516;49.456;2023-05-19T08:20:36;20.94;30.99
67555;HTU21D;54385;53.516;49.456;2023-05-19T08:23:03;21.21;29.22
67555;HTU21D;54385;53.516;49.456;2023-05-19T08:25:30;21.24;29.13
67555;HTU21D;54385;53.516;49.456;2023-05-19T08:28:00;21.52;28.42
67555;HTU21D;54385;53.516;49.456;2023-05-19T08:30:27;21.76;28.13
67555;HTU21D;54385;53.516;49.456;2023-05-19T08:32:54;21.67;26.95
67555;HTU21D;54385;53.516;49.456;2023-05-19T08:35:21;21.73;26.09
67555;HTU21D;54385;53.516;49.456;2023-05-19T08:37:48;21.69;24.59
67555;HTU21D;54385;53.516;49.456;2023-05-19T08:40:17;21.44;23.40
67555;HTU21D;54385;53.516;49.456;2023-05-19T08:42:46;21.19;23.62
67555;HTU21D;54385;53.516;49.456;2023-05-19T08:45:14;21.01;24.88
67555;HTU21D;54385;53.516;49.456;2023-05-19T08:47:46;20.93;25.25
67555;HTU21D;54385;53.516;49.456;2023-05-19T08:50:16;21.15;24.65
67555;HTU21D;54385;53.516;49.456;2023-05-19T08:57:53;21.51;25.49
67555;HTU21D;54385;53.516;49.456;2023-05-19T09:00:22;21.76;24.15
67555;HTU21D;54385;53.516;49.456;2023-05-19T09:02:50;21.76;23.61
67555;HTU21D;54385;53.516;49.456;2023-05-19T09:05:18;21.89;24.50
67555;HTU21D;54385;53.516;49.456;2023-05-19T09:07:48;22.01;24.81
67555;HTU21D;54385;53.516;49.456;2023-05-19T09:10:14;21.93;25.68
67555;HTU21D;54385;53.516;49.456;2023-05-19T09:12:45;22.14;25.04
67555;HTU21D;54385;53.516;49.456;2023-05-19T09:15:16;22.32;24.30
67555;HTU21D;54385;53.516;49.456;2023-05-19T09:17:45;22.25;24.69
67555;HTU21D;54385;53.516;49.456;2023-05-19T09:20:16;22.34;25.25
67555;HTU21D;54385;53.516;49.456;2023-05-19T09:22:43;22.68;25.14
67555;HTU21D;54385;53.516;49.456;2023-05-19T09:25:20;22.77;24.33
67555;HTU21D;54385;53.516;49.456;2023-05-19T09:27:48;23.05;25.00
67555;HTU21D;54385;53.516;49.456;2023-05-19T09:30:16;23.21;24.58
67555;HTU21D;54385;53.516;49.456;2023-05-19T09:32:43;23.53;24.40
67555;HTU21D;54385;53.516;49.456;2023-05-19T09:35:13;23.61;23.29
67555;HTU21D;54385;53.516;49.456;2023-05-19T09:37:42;23.68;23.38
67555;HTU21D;54385;53.516;49.456;2023-05-19T09:40:10;23.69;23.94
67555;HTU21D;54385;53.516;49.456;2023-05-19T09:42:42;23.79;24.01
67555;HTU21D;54385;53.516;49.456;2023-05-19T09:45:09;23.69;23.79
67555;HTU21D;54385;53.516;49.456;2023-05-19T09:47:38;23.79;24.09
67555;HTU21D;54385;53.516;49.456;2023-05-19T09:50:31;23.79;21.13
67555;HTU21D;54385;53.516;49.456;2023-05-19T09:52:59;24.36;21.59
67555;HTU21D;54385;53.516;49.456;2023-05-19T09:55:28;25.12;20.62
67555;HTU21D;54385;53.516;49.456;2023-05-19T09:57:55;25.60;20.03
67555;HTU21D;54385;53.516;49.456;2023-05-19T10:00:22;26.24;19.08
67555;HTU21D;54385;53.516;49.456;2023-05-19T10:02:49;26.17;19.15
67555;HTU21D;54385;53.516;49.456;2023-05-19T10:05:17;25.67;19.49
67555;HTU21D;54385;53.516;49.456;2023-05-19T10:07:52;25.31;20.31
67555;HTU21D;54385;53.516;49.456;2023-05-19T10:10:20;24.90;20.39
67555;HTU21D;54385;53.516;49.456;2023-05-19T10:12:48;24.77;20.92
67555;HTU21D;54385;53.516;49.456;2023-05-19T10:15:16;24.29;21.38
67555;HTU21D;54385;53.516;49.456;2023-05-19T10:17:43;24.14;21.45
67555;HTU21D;54385;53.516;49.456;2023-05-19T10:20:15;24.32;21.70
67555;HTU21D;54385;53.516;49.456;2023-05-19T10:22:44;25.05;20.82
67555;HTU21D;54385;53.516;49.456;2023-05-19T10:25:11;25.56;20.05
67555;HTU21D;54385;53.516;49.456;2023-05-19T10:27:53;26.12;18.36
67555;HTU21D;54385;53.516;49.456;2023-05-19T10:30:44;26.06;19.02
67555;HTU21D;54385;53.516;49.456;2023-05-19T10:33:12;25.65;19.18
67555;HTU21D;54385;53.516;49.456;2023-05-19T10:38:44;24.58;20.13
67555;HTU21D;54385;53.516;49.456;2023-05-19T10:46:13;24.60;20.59
67555;HTU21D;54385;53.516;49.456;2023-05-19T10:48:43;25.20;18.80
67555;HTU21D;54385;53.516;49.456;2023-05-19T10:51:13;25.75;18.24
67555;HTU21D;54385;53.516;49.456;2023-05-19T10:53:42;25.95;18.32
67555;HTU21D;54385;53.516;49.456;2023-05-19T10:56:30;26.50;16.91
67555;HTU21D;54385;53.516;49.456;2023-05-19T10:58:59;26.89;17.61
67555;HTU21D;54385;53.516;49.456;2023-05-19T11:01:34;27.31;16.08
67555;HTU21D;54385;53.516;49.456;2023-05-19T11:04:06;27.01;16.46
67555;HTU21D;54385;53.516;49.456;2023-05-19T11:06:34;26.90;17.18
67555;HTU21D;54385;53.516;49.456;2023-05-19T11:11:46;27.29;16.94
67555;HTU21D;54385;53.516;49.456;2023-05-19T11:14:20;27.60;16.07
67555;HTU21D;54385;53.516;49.456;2023-05-19T11:16:55;27.39;15.83
67555;HTU21D;54385;53.516;49.456;2023-05-19T11:19:33;27.55;16.44
67555;HTU21D;54385;53.516;49.456;2023-05-19T11:22:12;27.22;16.36
67555;HTU21D;54385;53.516;49.456;2023-05-19T11:24:45;26.83;16.55
67555;HTU21D;54385;53.516;49.456;2023-05-19T11:30:00;26.26;17.15
67555;HTU21D;54385;53.516;49.456;2023-05-19T11:32:32;26.01;17.67
67555;HTU21D;54385;53.516;49.456;2023-05-19T11:34:59;25.63;18.13
67555;HTU21D;54385;53.516;49.456;2023-05-19T11:37:26;25.60;18.10
67555;HTU21D;54385;53.516;49.456;2023-05-19T11:39:57;25.35;17.80
67555;HTU21D;54385;53.516;49.456;2023-05-19T11:42:24;25.02;18.23
67555;HTU21D;54385;53.516;49.456;2023-05-19T11:44:54;24.69;18.67
67555;HTU21D;54385;53.516;49.456;2023-05-19T11:47:20;24.19;19.13
67555;HTU21D;54385;53.516;49.456;2023-05-19T11:49:47;24.09;19.25
67555;HTU21D;54385;53.516;49.456;2023-05-19T11:52:14;24.38;19.29
67555;HTU21D;54385;53.516;49.456;2023-05-19T11:54:41;25.19;18.24
67555;HTU21D;54385;53.516;49.456;2023-05-19T11:57:09;25.46;17.18
67555;HTU21D;54385;53.516;49.456;2023-05-19T11:59:39;24.99;17.55
67555;HTU21D;54385;53.516;49.456;2023-05-19T12:04:48;24.50;18.77
67555;HTU21D;54385;53.516;49.456;2023-05-19T12:07:17;24.25;19.37
67555;HTU21D;54385;53.516;49.456;2023-05-19T12:09:45;23.66;19.93
67555;HTU21D;54385;53.516;49.456;2023-05-19T12:12:16;23.24;20.37
67555;HTU21D;54385;53.516;49.456;2023-05-19T12:14:45;23.12;20.74
67555;HTU21D;54385;53.516;49.456;2023-05-19T12:17:14;22.72;21.40
67555;HTU21D;54385;53.516;49.456;2023-05-19T12:19:46;22.50;22.12
67555;HTU21D;54385;53.516;49.456;2023-05-19T12:22:15;22.23;21.95
67555;HTU21D;54385;53.516;49.456;2023-05-19T12:24:43;22.11;22.45
67555;HTU21D;54385;53.516;49.456;2023-05-19T12:27:15;21.95;22.67
67555;HTU21D;54385;53.516;49.456;2023-05-19T12:29:42;21.85;22.95
67555;HTU21D;54385;53.516;49.456;2023-05-19T12:32:09;21.72;23.14
67555;HTU21D;54385;53.516;49.456;2023-05-19T12:34:36;21.59;23.40
67555;HTU21D;54385;53.516;49.456;2023-05-19T12:37:04;21.42;23.75
67555;HTU21D;54385;53.516;49.456;2023-05-19T12:39:32;21.27;24.02
67555;HTU21D;54385;53.516;49.456;2023-05-19T12:42:17;21.33;24.69
67555;HTU21D;54385;53.516;49.456;2023-05-19T12:44:47;21.49;24.31
67555;HTU21D;54385;53.516;49.456;2023-05-19T12:47:15;21.54;23.98
67555;HTU21D;54385;53.516;49.456;2023-05-19T12:50:16;21.59;24.49
67555;HTU21D;54385;53.516;49.456;2023-05-19T12:52:47;21.51;24.55
67555;HTU21D;54385;53.516;49.456;2023-05-19T12:55:14;21.37;24.88
67555;HTU21D;54385;53.516;49.456;2023-05-19T12:57:48;21.34;24.87
67555;HTU21D;54385;53.516;49.456;2023-05-19T13:00:24;21.23;25.24
67555;HTU21D;54385;53.516;49.456;2023-05-19T13:03:05;21.20;25.78
67555;HTU21D;54385;53.516;49.456;2023-05-19T13:05:38;21.09;25.66
67555;HTU21D;54385;53.516;49.456;2023-05-19T13:08:08;21.02;26.12
67555;HTU21D;54385;53.516;49.456;2023-05-19T13:10:36;21.19;26.33
67555;HTU21D;54385;53.516;49.456;2023-05-19T13:13:03;21.27;26.00
67555;HTU21D;54385;53.516;49.456;2023-05-19T13:15:32;21.38;25.93
67555;HTU21D;54385;53.516;49.456;2023-05-19T13:18:09;21.49;25.63
67555;HTU21D;54385;53.516;49.456;2023-05-19T13:20:37;21.34;27.49
67555;HTU21D;54385;53.516;49.456;2023-05-19T13:23:05;21.25;28.45
67555;HTU21D;54385;53.516;49.456;2023-05-19T13:25:32;21.47;29.33
67555;HTU21D;54385;53.516;49.456;2023-05-19T13:28:05;22.57;28.12
67555;HTU21D;54385;53.516;49.456;2023-05-19T13:30:36;23.56;26.18
67555;HTU21D;54385;53.516;49.456;2023-05-19T13:33:06;23.29;26.47
67555;HTU21D;54385;53.516;49.456;2023-05-19T13:35:33;23.05;26.72
67555;HTU21D;54385;53.516;49.456;2023-05-19T13:38:06;22.91;27.14
67555;HTU21D;54385;53.516;49.456;2023-05-19T13:40:37;22.41;28.13
67555;HTU21D;54385;53.516;49.456;2023-05-19T13:43:04;22.37;27.96
67555;HTU21D;54385;53.516;49.456;2023-05-19T13:45:32;21.97;28.26
67555;HTU21D;54385;53.516;49.456;2023-05-19T13:48:01;21.69;28.58
67555;HTU21D;54385;53.516;49.456;2023-05-19T13:50:28;21.49;29.10
67555;HTU21D;54385;53.516;49.456;2023-05-19T13:52:55;21.55;29.03
67555;HTU21D;54385;53.516;49.456;2023-05-19T13:55:22;21.66;28.59
67555;HTU21D;54385;53.516;49.456;2023-05-19T13:57:49;21.29;29.07
67555;HTU21D;54385;53.516;49.456;2023-05-19T14:00:16;21.50;28.43
67555;HTU21D;54385;53.516;49.456;2023-05-19T14:02:43;21.39;28.65
67555;HTU21D;54385;53.516;49.456;2023-05-19T14:05:11;21.40;28.41
67555;HTU21D;54385;53.516;49.456;2023-05-19T14:07:37;21.48;28.49
67555;HTU21D;54385;53.516;49.456;2023-05-19T14:10:05;21.13;28.52
67555;HTU21D;54385;53.516;49.456;2023-05-19T14:12:32;20.91;28.84
67555;HTU21D;54385;53.516;49.456;2023-05-19T14:15:00;20.69;29.10
67555;HTU21D;54385;53.516;49.456;2023-05-19T14:17:27;20.72;29.27
67555;HTU21D;54385;53.516;49.456;2023-05-19T14:19:54;20.86;29.30
67555;HTU21D;54385;53.516;49.456;2023-05-19T14:22:21;20.83;29.21
67555;HTU21D;54385;53.516;49.456;2023-05-19T14:24:48;20.89;28.90
67555;HTU21D;54385;53.516;49.456;2023-05-19T14:27:17;20.57;28.98
67555;HTU21D;54385;53.516;49.456;2023-05-19T14:29:44;20.22;29.58
67555;HTU21D;54385;53.516;49.456;2023-05-19T14:32:10;20.17;29.96
67555;HTU21D;54385;53.516;49.456;2023-05-19T14:34:37;20.12;30.09
67555;HTU21D;54385;53.516;49.456;2023-05-19T14:37:04;20.22;30.09
67555;HTU21D;54385;53.516;49.456;2023-05-19T14:39:31;20.25;30.39
67555;HTU21D;54385;53.516;49.456;2023-05-19T14:41:57;20.09;30.54
67555;HTU21D;54385;53.516;49.456;2023-05-19T14:44:30;19.90;30.88
67555;HTU21D;54385;53.516;49.456;2023-05-19T14:47:01;19.91;30.58
67555;HTU21D;54385;53.516;49.456;2023-05-19T14:49:28;19.81;30.85
67555;HTU21D;54385;53.516;49.456;2023-05-19T14:51:55;19.76;31.04
67555;HTU21D;54385;53.516;49.456;2023-05-19T14:54:22;19.82;31.03
67555;HTU21D;54385;53.516;49.456;2023-05-19T14:56:49;19.71;31.76
67555;HTU21D;54385;53.516;49.456;2023-05-19T14:59:16;19.67;32.12
67555;HTU21D;54385;53.516;49.456;2023-05-19T15:01:42;19.58;32.54
67555;HTU21D;54385;53.516;49.456;2023-05-19T15:04:13;19.68;32.80
67555;HTU21D;54385;53.516;49.456;2023-05-19T15:06:40;19.80;32.44
67555;HTU21D;54385;53.516;49.456;2023-05-19T15:09:06;19.65;32.67
67555;HTU21D;54385;53.516;49.456;2023-05-19T15:11:33;19.61;33.05
67555;HTU21D;54385;53.516;49.456;2023-05-19T15:14:00;19.67;33.17
67555;HTU21D;54385;53.516;49.456;2023-05-19T15:16:26;19.59;33.21
67555;HTU21D;54385;53.516;49.456;2023-05-19T15:18:53;19.56;33.34
67555;HTU21D;54385;53.516;49.456;2023-05-19T15:21:20;19.44;33.74
67555;HTU21D;54385;53.516;49.456;2023-05-19T15:23:47;19.36;34.03
67555;HTU21D;54385;53.516;49.456;2023-05-19T15:26:14;19.36;34.33
67555;HTU21D;54385;53.516;49.456;2023-05-19T15:28:41;19.29;34.59
67555;HTU21D;54385;53.516;49.456;2023-05-19T15:31:07;19.16;34.90
67555;HTU21D;54385;53.516;49.456;2023-05-19T15:33:34;19.12;35.10
67555;HTU21D;54385;53.516;49.456;2023-05-19T15:36:01;19.06;35.31
67555;HTU21D;54385;53.516;49.456;2023-05-19T15:38:28;18.94;35.61
67555;HTU21D;54385;53.516;49.456;2023-05-19T15:40:55;19.00;35.82
67555;HTU21D;54385;53.516;49.456;2023-05-19T15:43:21;18.95;35.82
67555;HTU21D;54385;53.516;49.456;2023-05-19T15:45:48;18.85;36.05
67555;HTU21D;54385;53.516;49.456;2023-05-19T15:48:17;18.78;36.30
67555;HTU21D;54385;53.516;49.456;2023-05-19T15:50:44;18.82;36.64